Time;durP1;ratioP1;P1;durP2;ratioP2;P2;SDS_P1;SDS_P2;PMS_P1;PMS_P2;Temp;Humidity;BMP_temperature;BMP_pressure;BME280_temperature;BME280_humidity;BME280_pressure;Samples;Min_cycle;Max_cycle;Signal;HPM_P1;HPM_P2
2022/09/08 00:02:20;;;;;;;11.90;9.82;;;;;;;;;;5053649;28;20143;-77
2022/09/08 00:04:46;;;;;;;10.57;9.57;;;;;;;;;;5055950;28;20021;-77
2022/09/08 00:07:11;;;;;;;9.63;8.63;;;;;;;;;;5053832;28;20444;-76
2022/09/08 00:09:36;;;;;;;11.02;10.02;;;;;;;;;;5055005;28;20032;-76
2022/09/08 00:12:03;;;;;;;15.68;12.38;;;;;;;;;;5056090;28;20463;-76
2022/09/08 00:14:29;;;;;;;16.05;11.95;;;;;;;;;;5053164;28;20032;-77
2022/09/08 00:16:55;;;;;;;13.38;11.73;;;;;;;;;;5060311;28;20025;-79
2022/09/08 00:19:20;;;;;;;11.60;10.45;;;;;;;;;;5057777;28;20410;-80
2022/09/08 00:21:46;;;;;;;12.50;10.13;;;;;;;;;;5057030;28;20139;-76
2022/09/08 00:24:11;;;;;;;11.15;9.85;;;;;;;;;;5059313;28;20028;-74
2022/09/08 00:26:36;;;;;;;12.05;9.55;;;;;;;;;;5058146;28;20025;-75
2022/09/08 00:29:02;;;;;;;10.30;8.77;;;;;;;;;;5061832;28;20157;-75
2022/09/08 00:31:27;;;;;;;9.77;8.85;;;;;;;;;;5063465;28;20041;-75
2022/09/08 00:33:52;;;;;;;10.07;9.10;;;;;;;;;;5062605;28;20030;-74
2022/09/08 00:36:18;;;;;;;9.38;8.57;;;;;;;;;;5059242;28;20056;-74
2022/09/08 00:38:50;;;;;;;8.48;7.82;;;;;;;;;;5063035;28;20032;-74
2022/09/08 00:41:16;;;;;;;8.70;8.00;;;;;;;;;;5061159;28;20036;-74
2022/09/08 00:43:42;;;;;;;9.13;8.30;;;;;;;;;;5062109;28;20478;-74
2022/09/08 00:46:07;;;;;;;10.77;9.68;;;;;;;;;;5056362;28;20029;-76
2022/09/08 00:48:38;;;;;;;10.35;9.40;;;;;;;;;;5059501;28;20031;-75
2022/09/08 00:51:04;;;;;;;9.27;8.48;;;;;;;;;;5058454;28;20028;-76
2022/09/08 00:53:31;;;;;;;12.65;10.52;;;;;;;;;;5061570;28;20028;-74
2022/09/08 00:55:56;;;;;;;11.43;9.75;;;;;;;;;;5059939;28;20352;-75
2022/09/08 00:58:22;;;;;;;10.50;9.50;;;;;;;;;;5060332;28;20048;-74
2022/09/08 01:00:48;;;;;;;11.52;10.43;;;;;;;;;;5061490;28;20393;-75
2022/09/08 01:03:17;;;;;;;10.13;9.18;;;;;;;;;;5057515;28;20554;-74
2022/09/08 01:05:46;;;;;;;9.10;8.30;;;;;;;;;;5059584;28;20698;-74
2022/09/08 01:14:05;;;;;;;9.00;8.20;;;;;;;;;;5059218;28;20479;-74
2022/09/08 01:16:39;;;;;;;8.68;7.70;;;;;;;;;;5059234;28;20048;-74
2022/09/08 01:19:07;;;;;;;9.10;8.40;;;;;;;;;;5047277;28;20026;-75
2022/09/08 01:21:41;;;;;;;10.35;9.32;;;;;;;;;;5044926;28;20032;-76
2022/09/08 01:24:25;;;;;;;10.40;9.27;;;;;;;;;;5060995;28;20021;-74
2022/09/08 01:27:09;;;;;;;11.05;9.50;;;;;;;;;;5045125;28;20414;-75
2022/09/08 01:29:34;;;;;;;10.27;9.27;;;;;;;;;;5057093;28;20462;-76
2022/09/08 01:32:01;;;;;;;10.30;9.30;;;;;;;;;;5061893;28;20028;-74
2022/09/08 01:34:35;;;;;;;11.07;9.75;;;;;;;;;;5048516;28;20024;-78
2022/09/08 01:37:01;;;;;;;11.38;10.18;;;;;;;;;;5045249;28;20029;-74
2022/09/08 01:39:26;;;;;;;9.75;8.85;;;;;;;;;;5051611;28;20085;-76
2022/09/08 01:41:51;;;;;;;10.90;9.63;;;;;;;;;;5052149;28;20201;-72
2022/09/08 01:44:17;;;;;;;8.90;8.10;;;;;;;;;;5059316;28;20029;-76
2022/09/08 01:46:42;;;;;;;9.98;9.05;;;;;;;;;;5051352;28;20746;-73
2022/09/08 01:49:07;;;;;;;9.15;8.25;;;;;;;;;;5047635;28;20029;-73
2022/09/08 01:51:33;;;;;;;10.07;9.20;;;;;;;;;;5046433;28;20032;-73
2022/09/08 01:53:59;;;;;;;10.13;9.13;;;;;;;;;;5046190;28;20036;-74
2022/09/08 01:56:24;;;;;;;10.95;9.52;;;;;;;;;;5043919;28;20036;-75
2022/09/08 01:58:49;;;;;;;11.25;10.07;;;;;;;;;;5043337;28;20394;-73
2022/09/08 02:01:14;;;;;;;11.30;10.05;;;;;;;;;;5042976;28;20025;-74
2022/09/08 02:03:40;;;;;;;9.90;8.90;;;;;;;;;;5054095;28;20036;-74
2022/09/08 02:06:06;;;;;;;9.40;8.60;;;;;;;;;;5046405;28;20077;-73
2022/09/08 02:08:31;;;;;;;10.27;9.25;;;;;;;;;;5051521;28;20040;-74
2022/09/08 02:10:58;;;;;;;9.60;8.70;;;;;;;;;;5046405;28;20039;-73
2022/09/08 02:13:24;;;;;;;10.43;9.05;;;;;;;;;;5052270;28;20028;-76
2022/09/08 02:15:50;;;;;;;11.65;9.35;;;;;;;;;;5048519;28;20029;-77
2022/09/08 02:18:15;;;;;;;13.90;10.13;;;;;;;;;;5051912;28;20032;-75
2022/09/08 02:20:41;;;;;;;11.93;8.77;;;;;;;;;;5042920;28;20063;-76
2022/09/08 02:23:06;;;;;;;11.48;10.30;;;;;;;;;;5050070;28;20039;-77
2022/09/08 02:25:31;;;;;;;9.82;8.82;;;;;;;;;;5050191;28;20140;-76
2022/09/08 02:27:57;;;;;;;11.85;10.65;;;;;;;;;;5047760;28;20040;-74
2022/09/08 02:30:22;;;;;;;16.20;12.27;;;;;;;;;;5054986;28;20451;-75
2022/09/08 02:32:49;;;;;;;12.30;10.30;;;;;;;;;;5048223;28;20021;-75
2022/09/08 02:35:14;;;;;;;11.45;10.20;;;;;;;;;;5050467;28;20119;-75
2022/09/08 02:37:40;;;;;;;10.75;9.75;;;;;;;;;;5045442;28;21302;-79
2022/09/08 02:40:05;;;;;;;10.10;9.18;;;;;;;;;;5055725;28;20812;-77
2022/09/08 02:42:31;;;;;;;8.98;8.18;;;;;;;;;;5043161;28;20055;-75
2022/09/08 02:44:57;;;;;;;9.75;8.90;;;;;;;;;;5056387;28;20459;-77
2022/09/08 02:47:22;;;;;;;10.20;9.20;;;;;;;;;;5056158;28;20693;-75
2022/09/08 02:49:47;;;;;;;14.10;12.52;;;;;;;;;;5055113;28;20448;-74
2022/09/08 02:52:13;;;;;;;20.30;13.05;;;;;;;;;;5045406;28;20130;-74
2022/09/08 02:54:38;;;;;;;12.25;10.57;;;;;;;;;;5052365;28;20028;-73
2022/09/08 02:57:04;;;;;;;10.60;9.60;;;;;;;;;;5042416;28;20024;-75
2022/09/08 02:59:29;;;;;;;9.32;8.52;;;;;;;;;;5055965;28;20049;-75
2022/09/08 03:01:54;;;;;;;9.43;8.63;;;;;;;;;;5051175;28;20128;-74
2022/09/08 03:04:20;;;;;;;9.82;9.02;;;;;;;;;;5047784;28;20058;-76
2022/09/08 03:06:45;;;;;;;9.95;9.10;;;;;;;;;;5055255;28;20024;-74
2022/09/08 03:09:11;;;;;;;9.32;8.60;;;;;;;;;;5051638;28;20029;-76
2022/09/08 03:11:36;;;;;;;9.35;8.60;;;;;;;;;;5047144;28;20048;-79
2022/09/08 03:14:01;;;;;;;9.68;8.68;;;;;;;;;;5054365;28;20044;-78
2022/09/08 03:16:27;;;;;;;9.40;8.60;;;;;;;;;;5054655;28;20039;-77
2022/09/08 03:18:53;;;;;;;10.38;9.48;;;;;;;;;;5053971;28;20024;-75
2022/09/08 03:21:19;;;;;;;9.00;8.20;;;;;;;;;;5056005;28;20063;-76
2022/09/08 03:23:44;;;;;;;9.27;8.38;;;;;;;;;;5041815;28;20052;-74
2022/09/08 03:26:14;;;;;;;9.48;7.88;;;;;;;;;;5045135;28;20082;-75
2022/09/08 03:28:39;;;;;;;;;;;;;;;;;;5047296;28;20047;-74
2022/09/08 03:31:11;;;;;;;8.80;7.90;;;;;;;;;;5054419;28;19920;-75
2022/09/08 03:33:37;;;;;;;8.45;7.75;;;;;;;;;;5046913;28;20016;-73
2022/09/08 03:36:03;;;;;;;13.43;8.73;;;;;;;;;;5051324;28;20039;-75
2022/09/08 03:38:29;;;;;;;9.15;8.45;;;;;;;;;;5043799;28;20033;-79
2022/09/08 03:40:55;;;;;;;9.88;8.98;;;;;;;;;;5056732;28;20358;-76
2022/09/08 03:43:20;;;;;;;9.40;8.60;;;;;;;;;;5056214;28;20468;-76
2022/09/08 03:45:45;;;;;;;9.95;8.98;;;;;;;;;;5041924;28;20033;-76
2022/09/08 03:48:11;;;;;;;9.68;8.80;;;;;;;;;;5053790;28;20032;-75
2022/09/08 03:50:37;;;;;;;9.75;8.80;;;;;;;;;;5058277;28;20036;-75
2022/09/08 03:53:02;;;;;;;9.02;8.23;;;;;;;;;;5063349;28;20394;-75
2022/09/08 03:55:27;;;;;;;9.50;8.65;;;;;;;;;;5045343;28;20035;-75
2022/09/08 03:57:53;;;;;;;9.63;8.73;;;;;;;;;;5053666;28;20039;-72
2022/09/08 04:00:18;;;;;;;9.27;8.38;;;;;;;;;;5063037;28;20427;-73
2022/09/08 04:02:43;;;;;;;9.38;8.48;;;;;;;;;;5048285;28;20024;-73
2022/09/08 04:05:09;;;;;;;10.02;9.23;;;;;;;;;;5061914;28;20021;-73
2022/09/08 04:07:34;;;;;;;11.32;9.40;;;;;;;;;;5048411;28;20031;-73
2022/09/08 04:10:01;;;;;;;10.43;8.93;;;;;;;;;;5045841;28;20507;-72
2022/09/08 04:12:27;;;;;;;8.95;8.13;;;;;;;;;;5054597;28;20029;-75
2022/09/08 04:14:52;;;;;;;13.20;8.73;;;;;;;;;;5044097;28;20047;-70
2022/09/08 04:17:18;;;;;;;9.00;8.10;;;;;;;;;;5047087;28;20031;-72
2022/09/08 04:19:43;;;;;;;8.65;7.90;;;;;;;;;;5050195;28;20423;-74
2022/09/08 04:22:09;;;;;;;10.93;8.10;;;;;;;;;;5042740;28;20025;-76
2022/09/08 04:24:35;;;;;;;10.57;8.50;;;;;;;;;;5047280;28;20028;-76
2022/09/08 04:27:00;;;;;;;8.85;8.10;;;;;;;;;;5054074;28;20033;-75
2022/09/08 04:29:26;;;;;;;8.40;7.70;;;;;;;;;;5049479;28;20036;-76
2022/09/08 04:31:51;;;;;;;9.40;8.50;;;;;;;;;;5057189;28;20029;-80
2022/09/08 04:34:17;;;;;;;9.13;8.10;;;;;;;;;;5060407;28;20567;-77
2022/09/08 04:36:42;;;;;;;9.88;8.98;;;;;;;;;;5059230;28;20032;-79
2022/09/08 04:39:08;;;;;;;9.25;7.78;;;;;;;;;;5060811;28;20428;-76
2022/09/08 04:41:34;;;;;;;9.13;8.43;;;;;;;;;;5063728;28;20072;-79
2022/09/08 04:44:01;;;;;;;8.30;7.70;;;;;;;;;;5036870;28;20428;-77
2022/09/08 04:46:27;;;;;;;9.35;8.45;;;;;;;;;;5041150;28;20022;-78
2022/09/08 04:48:53;;;;;;;10.95;8.93;;;;;;;;;;5026831;28;20025;-77
2022/09/08 04:51:18;;;;;;;10.48;9.57;;;;;;;;;;5023027;28;20028;-75
2022/09/08 04:53:43;;;;;;;10.48;9.57;;;;;;;;;;5022723;28;20068;-77
2022/09/08 04:56:10;;;;;;;8.98;8.20;;;;;;;;;;5023020;28;20040;-77
2022/09/08 04:58:37;;;;;;;8.98;8.27;;;;;;;;;;5026436;28;20048;-76
2022/09/08 05:01:04;;;;;;;10.23;9.25;;;;;;;;;;5027023;28;20032;-75
2022/09/08 05:03:29;;;;;;;10.25;9.27;;;;;;;;;;5039415;28;20060;-77
2022/09/08 05:05:54;;;;;;;10.43;9.38;;;;;;;;;;5040666;28;20052;-75
2022/09/08 05:08:20;;;;;;;9.93;8.98;;;;;;;;;;5040911;28;20091;-77
2022/09/08 05:10:47;;;;;;;10.13;8.70;;;;;;;;;;5040295;28;20041;-74
2022/09/08 05:13:13;;;;;;;9.82;8.82;;;;;;;;;;5040906;28;20029;-74
2022/09/08 05:15:38;;;;;;;15.38;12.00;;;;;;;;;;5040316;28;20354;-72
2022/09/08 05:18:03;;;;;;;16.10;13.27;;;;;;;;;;5040383;28;20069;-77
2022/09/08 05:20:29;;;;;;;26.50;23.80;;;;;;;;;;5040274;28;20021;-79
2022/09/08 05:22:54;;;;;;;15.55;14.07;;;;;;;;;;5037973;28;20025;-77
2022/09/08 05:25:19;;;;;;;13.65;12.25;;;;;;;;;;5021415;28;20033;-78
2022/09/08 05:27:47;;;;;;;21.85;19.15;;;;;;;;;;5021229;28;20079;-76
2022/09/08 05:30:12;;;;;;;25.35;19.65;;;;;;;;;;5028015;28;20029;-75
2022/09/08 05:32:38;;;;;;;21.83;19.13;;;;;;;;;;5040202;28;20458;-75
2022/09/08 05:35:03;;;;;;;21.27;19.05;;;;;;;;;;5040750;28;20280;-77
2022/09/08 05:37:29;;;;;;;17.75;14.60;;;;;;;;;;5042408;28;20033;-76
2022/09/08 05:39:54;;;;;;;11.50;10.50;;;;;;;;;;5042347;28;20499;-77
2022/09/08 05:42:20;;;;;;;13.60;10.70;;;;;;;;;;5046598;28;20098;-76
2022/09/08 05:44:45;;;;;;;11.50;10.50;;;;;;;;;;5041165;28;20040;-77
2022/09/08 05:47:10;;;;;;;12.73;11.57;;;;;;;;;;5038552;28;20020;-77
2022/09/08 05:49:36;;;;;;;13.00;11.82;;;;;;;;;;5046587;28;20035;-77
2022/09/08 05:52:01;;;;;;;12.57;11.38;;;;;;;;;;5036423;28;20124;-75
2022/09/08 05:54:26;;;;;;;16.92;12.88;;;;;;;;;;5044545;28;20028;-76
2022/09/08 05:56:52;;;;;;;13.55;11.82;;;;;;;;;;5058306;28;20078;-76
2022/09/08 05:59:17;;;;;;;12.65;11.15;;;;;;;;;;5060326;28;20415;-75
2022/09/08 06:01:43;;;;;;;11.32;10.15;;;;;;;;;;5059626;28;20359;-76
2022/09/08 06:04:08;;;;;;;12.07;10.75;;;;;;;;;;5058544;28;20102;-75
2022/09/08 06:06:34;;;;;;;11.18;10.18;;;;;;;;;;5045817;28;20111;-76
2022/09/08 06:09:00;;;;;;;10.68;9.77;;;;;;;;;;5054153;28;21068;-76
2022/09/08 06:11:25;;;;;;;12.52;11.27;;;;;;;;;;5058240;28;20424;-75
2022/09/08 06:13:51;;;;;;;15.45;13.93;;;;;;;;;;5057653;28;20021;-76
2022/09/08 06:16:17;;;;;;;13.00;11.70;;;;;;;;;;5058116;28;20043;-77
2022/09/08 06:18:43;;;;;;;11.98;10.77;;;;;;;;;;5060746;28;20444;-78
2022/09/08 06:21:15;;;;;;;9.98;9.05;;;;;;;;;;5061284;28;20438;-77
2022/09/08 06:23:40;;;;;;;9.98;9.15;;;;;;;;;;5060833;28;20104;-75
2022/09/08 06:26:15;;;;;;;9.07;8.25;;;;;;;;;;5060191;28;20163;-78
2022/09/08 06:28:52;;;;;;;8.63;7.93;;;;;;;;;;5059667;28;20032;-76
2022/09/08 06:31:21;;;;;;;8.45;7.65;;;;;;;;;;5049923;28;20078;-75
2022/09/08 06:33:47;;;;;;;14.07;12.98;;;;;;;;;;5044545;28;20028;-77
2022/09/08 06:36:19;;;;;;;13.00;9.45;;;;;;;;;;5033817;28;20021;-75
2022/09/08 06:38:51;;;;;;;12.27;11.18;;;;;;;;;;5036787;28;20052;-76
2022/09/08 06:41:21;;;;;;;9.43;8.73;;;;;;;;;;5037271;28;20839;-75
2022/09/08 06:43:47;;;;;;;11.25;8.73;;;;;;;;;;5038743;28;20379;-76
2022/09/08 06:46:35;;;;;;;9.40;8.48;;;;;;;;;;5040428;28;20035;-77
2022/09/08 06:49:01;;;;;;;10.73;9.67;;;;;;;;;;5026216;28;20132;-77
2022/09/08 06:51:36;;;;;;;10.63;9.30;;;;;;;;;;5035119;28;20415;-76
2022/09/08 06:54:04;;;;;;;12.40;9.38;;;;;;;;;;5035353;28;20036;-76
2022/09/08 06:56:48;;;;;;;10.30;9.30;;;;;;;;;;5032660;28;20124;-79
2022/09/08 06:59:20;;;;;;;12.20;9.68;;;;;;;;;;5034404;28;20036;-78
2022/09/08 07:02:08;;;;;;;10.10;8.82;;;;;;;;;;5036552;28;20033;-76
2022/09/08 07:04:42;;;;;;;9.57;8.77;;;;;;;;;;5030294;28;20086;-79
2022/09/08 07:07:22;;;;;;;9.93;8.93;;;;;;;;;;5057945;28;20024;-77
2022/09/08 07:09:53;;;;;;;11.23;8.27;;;;;;;;;;5056654;28;20024;-78
2022/09/08 07:12:25;;;;;;;8.65;7.60;;;;;;;;;;5056782;28;20032;-78
2022/09/08 07:15:11;;;;;;;7.63;6.55;;;;;;;;;;5058214;28;20034;-78
2022/09/08 07:17:45;;;;;;;11.55;7.40;;;;;;;;;;5043891;28;20041;-78
2022/09/08 07:20:11;;;;;;;8.80;7.00;;;;;;;;;;5055556;28;20050;-79
2022/09/08 07:23:03;;;;;;;7.47;6.47;;;;;;;;;;5059816;28;20336;-77
2022/09/08 07:25:28;;;;;;;6.00;5.40;;;;;;;;;;5026595;28;20123;-78
2022/09/08 07:28:05;;;;;;;6.63;6.00;;;;;;;;;;5051024;28;20039;-77
2022/09/08 07:30:31;;;;;;;11.60;9.50;;;;;;;;;;5049327;28;20036;-77
2022/09/08 07:33:01;;;;;;;14.05;12.65;;;;;;;;;;5042432;28;20021;-77
2022/09/08 07:35:26;;;;;;;9.90;8.90;;;;;;;;;;5055897;28;20103;-78
2022/09/08 07:37:54;;;;;;;6.95;6.25;;;;;;;;;;5059968;28;20115;-76
2022/09/08 07:40:40;;;;;;;7.90;6.65;;;;;;;;;;5056509;28;20081;-79
2022/09/08 07:43:13;;;;;;;7.45;6.63;;;;;;;;;;5055636;28;20464;-77
2022/09/08 07:45:41;;;;;;;9.40;6.55;;;;;;;;;;5059852;28;20102;-77
2022/09/08 07:48:07;;;;;;;9.87;6.60;;;;;;;;;;5058463;28;20093;-78
2022/09/08 07:50:55;;;;;;;7.45;6.38;;;;;;;;;;5059134;28;20028;-76
2022/09/08 07:53:39;;;;;;;8.52;6.55;;;;;;;;;;5055825;28;20120;-77
2022/09/08 07:56:12;;;;;;;9.52;7.00;;;;;;;;;;5062734;28;20363;-77
2022/09/08 07:58:45;;;;;;;10.15;6.05;;;;;;;;;;5058636;28;20121;-77
2022/09/08 08:01:17;;;;;;;7.00;6.40;;;;;;;;;;5059309;28;20036;-77
2022/09/08 08:03:55;;;;;;;7.03;6.35;;;;;;;;;;5058283;28;20138;-76
2022/09/08 08:06:26;;;;;;;8.98;6.03;;;;;;;;;;5057490;28;20040;-77
2022/09/08 08:08:51;;;;;;;8.88;5.80;;;;;;;;;;5056971;28;20391;-75
2022/09/08 08:11:23;;;;;;;9.05;5.65;;;;;;;;;;5057532;28;20076;-77
2022/09/08 08:13:53;;;;;;;6.40;5.53;;;;;;;;;;5056317;28;20031;-76
2022/09/08 08:16:24;;;;;;;9.40;6.90;;;;;;;;;;5056419;28;20031;-76
2022/09/08 08:18:55;;;;;;;8.00;6.70;;;;;;;;;;5057051;28;20768;-76
2022/09/08 08:21:41;;;;;;;7.55;6.43;;;;;;;;;;5057556;28;20440;-78
2022/09/08 08:24:07;;;;;;;18.90;16.63;;;;;;;;;;5060037;28;20046;-77
2022/09/08 08:26:41;;;;;;;8.63;7.75;;;;;;;;;;5058260;28;20107;-77
2022/09/08 08:29:25;;;;;;;7.68;5.28;;;;;;;;;;5055811;28;20034;-78
2022/09/08 08:31:56;;;;;;;5.15;4.65;;;;;;;;;;5057511;28;20029;-77
2022/09/08 08:34:29;;;;;;;6.30;4.68;;;;;;;;;;5056561;28;23084;-76
2022/09/08 08:36:58;;;;;;;8.40;7.50;;;;;;;;;;5060292;28;20036;-78
2022/09/08 08:39:24;;;;;;;6.68;5.43;;;;;;;;;;5060340;28;20321;-77
2022/09/08 08:41:58;;;;;;;8.68;5.32;;;;;;;;;;5047706;28;20028;-76
2022/09/08 08:44:29;;;;;;;5.45;4.65;;;;;;;;;;5057813;28;20090;-78
2022/09/08 08:46:54;;;;;;;5.57;5.00;;;;;;;;;;5060709;28;20029;-78
2022/09/08 08:49:19;;;;;;;5.40;5.00;;;;;;;;;;5061151;28;20033;-77
2022/09/08 08:51:45;;;;;;;7.60;4.47;;;;;;;;;;5061033;28;20066;-77
2022/09/08 08:54:10;;;;;;;6.20;4.32;;;;;;;;;;5048029;28;20037;-79
2022/09/08 08:56:43;;;;;;;5.07;4.40;;;;;;;;;;5055445;28;20450;-80
2022/09/08 08:59:27;;;;;;;5.22;4.47;;;;;;;;;;5061875;28;20024;-80
2022/09/08 09:02:10;;;;;;;4.63;4.22;;;;;;;;;;5061148;28;20071;-76
2022/09/08 09:04:45;;;;;;;4.68;4.20;;;;;;;;;;5061731;28;20024;-76
2022/09/08 09:07:29;;;;;;;5.55;4.53;;;;;;;;;;5061593;28;20031;-76
2022/09/08 09:10:03;;;;;;;5.32;4.18;;;;;;;;;;5062287;28;20119;-77
2022/09/08 09:12:53;;;;;;;5.32;4.72;;;;;;;;;;5062600;28;20098;-78
2022/09/08 09:15:33;;;;;;;5.00;4.60;;;;;;;;;;5059377;28;20033;-77
2022/09/08 09:18:14;;;;;;;5.25;4.80;;;;;;;;;;5061626;28;20028;-78
2022/09/08 09:21:00;;;;;;;5.47;4.53;;;;;;;;;;5062935;28;20388;-77
2022/09/08 09:23:28;;;;;;;5.68;5.18;;;;;;;;;;5062551;28;20181;-77
2022/09/08 09:25:54;;;;;;;;;;;;;;;;;;5062228;28;20052;-77
2022/09/08 09:28:33;;;;;;;7.13;4.87;;;;;;;;;;5050605;28;20344;-78
2022/09/08 09:31:17;;;;;;;6.75;4.95;;;;;;;;;;5050334;28;20442;-74
2022/09/08 09:33:58;;;;;;;5.10;4.60;;;;;;;;;;5059925;28;20029;-78
2022/09/08 09:36:33;;;;;;;6.22;4.88;;;;;;;;;;5061678;28;20025;-76
2022/09/08 09:38:58;;;;;;;4.80;4.40;;;;;;;;;;5060174;28;20033;-74
2022/09/08 09:41:44;;;;;;;4.65;4.22;;;;;;;;;;5060669;28;20033;-76
2022/09/08 09:44:24;;;;;;;4.82;4.28;;;;;;;;;;5051290;28;20123;-76
2022/09/08 09:47:15;;;;;;;5.40;4.90;;;;;;;;;;5060952;28;20024;-80
2022/09/08 09:49:59;;;;;;;11.25;8.52;;;;;;;;;;5060633;28;20481;-77
2022/09/08 09:52:24;;;;;;;7.13;6.53;;;;;;;;;;5057140;28;20029;-77
2022/09/08 09:55:08;;;;;;;6.22;5.72;;;;;;;;;;5059826;28;20027;-76
2022/09/08 09:57:52;;;;;;;5.80;5.00;;;;;;;;;;5059634;28;20059;-78
2022/09/08 10:00:28;;;;;;;5.32;4.78;;;;;;;;;;5062065;28;20442;-76
2022/09/08 10:03:12;;;;;;;8.45;5.25;;;;;;;;;;5060380;28;20031;-77
2022/09/08 10:05:55;;;;;;;6.68;5.25;;;;;;;;;;5061206;28;20024;-77
2022/09/08 10:08:27;;;;;;;6.47;5.88;;;;;;;;;;5060532;28;20039;-76
2022/09/08 10:11:11;;;;;;;7.88;5.03;;;;;;;;;;5060112;28;21049;-78
2022/09/08 10:13:52;;;;;;;6.30;4.97;;;;;;;;;;5061973;28;20351;-76
2022/09/08 10:16:36;;;;;;;5.28;4.78;;;;;;;;;;5058913;28;20024;-76
2022/09/08 10:19:20;;;;;;;5.63;5.10;;;;;;;;;;5059759;28;20028;-78
2022/09/08 10:21:48;;;;;;;6.00;5.40;;;;;;;;;;5056832;28;20036;-77
2022/09/08 10:24:20;;;;;;;5.40;4.97;;;;;;;;;;5061136;28;20423;-79
2022/09/08 10:27:04;;;;;;;6.75;5.80;;;;;;;;;;5061081;28;20021;-79
2022/09/08 10:29:29;;;;;;;5.72;5.22;;;;;;;;;;5060179;28;20033;-79
2022/09/08 10:32:00;;;;;;;5.30;4.80;;;;;;;;;;5060177;28;20286;-78
2022/09/08 10:34:38;;;;;;;5.55;5.00;;;;;;;;;;5060647;28;20458;-77
2022/09/08 10:37:10;;;;;;;6.13;5.47;;;;;;;;;;5059317;28;20344;-75
2022/09/08 10:39:53;;;;;;;5.45;4.93;;;;;;;;;;5059476;28;20033;-77
2022/09/08 10:42:34;;;;;;;6.18;5.60;;;;;;;;;;5060058;28;20044;-77
2022/09/08 10:45:21;;;;;;;6.38;5.25;;;;;;;;;;5060905;28;20174;-78
2022/09/08 10:47:46;;;;;;;5.80;5.00;;;;;;;;;;5059598;28;20016;-78
2022/09/08 10:50:11;;;;;;;5.65;5.15;;;;;;;;;;5061176;28;20427;-75
2022/09/08 10:52:37;;;;;;;5.70;5.00;;;;;;;;;;5057658;28;20333;-77
2022/09/08 10:55:08;;;;;;;6.38;5.78;;;;;;;;;;5058282;28;20033;-78
2022/09/08 10:57:40;;;;;;;6.53;5.20;;;;;;;;;;5059807;28;20028;-76
2022/09/08 11:00:21;;;;;;;8.27;5.45;;;;;;;;;;5059632;28;20078;-78
2022/09/08 11:02:53;;;;;;;5.95;5.10;;;;;;;;;;5059627;28;20028;-76
2022/09/08 11:05:37;;;;;;;6.40;5.35;;;;;;;;;;5058947;28;20056;-78
2022/09/08 11:08:19;;;;;;;10.48;7.30;;;;;;;;;;5057696;28;20044;-77
2022/09/08 11:10:53;;;;;;;5.65;5.25;;;;;;;;;;5059152;28;20759;-78
2022/09/08 11:13:27;;;;;;;5.63;5.10;;;;;;;;;;5059674;28;20125;-78
2022/09/08 11:15:52;;;;;;;5.57;5.07;;;;;;;;;;5058996;28;20032;-76
2022/09/08 11:18:17;;;;;;;8.38;5.60;;;;;;;;;;5059245;28;20115;-75
2022/09/08 11:20:48;;;;;;;5.88;5.38;;;;;;;;;;5058786;28;20033;-76
2022/09/08 11:23:14;;;;;;;7.45;5.10;;;;;;;;;;5057782;28;20028;-76
2022/09/08 11:25:42;;;;;;;5.72;5.22;;;;;;;;;;5059803;28;20021;-77
2022/09/08 11:28:16;;;;;;;6.35;5.40;;;;;;;;;;5060846;28;20036;-77
2022/09/08 11:31:00;;;;;;;5.65;5.00;;;;;;;;;;5060040;28;20487;-77
2022/09/08 11:33:45;;;;;;;5.68;5.13;;;;;;;;;;5059194;28;20430;-81
2022/09/08 11:36:29;;;;;;;6.15;5.65;;;;;;;;;;5057517;28;20016;-78
2022/09/08 11:39:00;;;;;;;9.75;5.10;;;;;;;;;;5057018;28;20063;-78
2022/09/08 11:41:32;;;;;;;5.72;5.03;;;;;;;;;;5060236;28;20115;-79
2022/09/08 11:44:00;;;;;;;5.47;5.07;;;;;;;;;;5057095;28;20099;-76
2022/09/08 11:46:35;;;;;;;5.00;4.60;;;;;;;;;;5056765;28;20020;-78
2022/09/08 11:49:04;;;;;;;5.50;5.00;;;;;;;;;;5057400;28;20453;-80
2022/09/08 11:51:36;;;;;;;6.07;5.30;;;;;;;;;;5051825;28;20115;-76
2022/09/08 11:54:14;;;;;;;6.55;4.75;;;;;;;;;;5036018;28;20020;-79
2022/09/08 11:57:18;;;;;;;6.68;4.90;;;;;;;;;;5037655;28;20039;-78
2022/09/08 11:59:46;;;;;;;4.85;4.43;;;;;;;;;;4967942;28;20038;-77
2022/09/08 12:02:11;;;;;;;5.22;4.72;;;;;;;;;;4966613;28;20096;-80
2022/09/08 12:04:42;;;;;;;6.38;4.65;;;;;;;;;;4967185;28;20557;-79
2022/09/08 12:07:26;;;;;;;5.97;5.47;;;;;;;;;;4975233;28;20071;-76
2022/09/08 12:10:10;;;;;;;4.63;4.18;;;;;;;;;;4975583;28;20038;-77
2022/09/08 12:12:41;;;;;;;5.20;4.60;;;;;;;;;;4982355;28;20040;-77
2022/09/08 12:15:06;;;;;;;5.38;4.20;;;;;;;;;;4980290;28;20462;-77
2022/09/08 12:17:37;;;;;;;5.35;4.38;;;;;;;;;;4978896;28;20038;-78
2022/09/08 12:20:22;;;;;;;6.85;4.28;;;;;;;;;;4970713;28;20132;-77
2022/09/08 12:22:50;;;;;;;5.00;4.50;;;;;;;;;;4968646;28;20163;-77
2022/09/08 12:25:16;;;;;;;6.10;4.82;;;;;;;;;;4969012;28;20050;-79
2022/09/08 12:28:00;;;;;;;9.63;4.40;;;;;;;;;;4970676;28;20030;-76
2022/09/08 12:30:55;;;;;;;4.97;4.57;;;;;;;;;;5004718;28;20052;-78
2022/09/08 12:33:29;;;;;;;4.80;4.20;;;;;;;;;;4969686;28;20122;-83
2022/09/08 12:36:00;;;;;;;4.70;4.25;;;;;;;;;;4972604;28;20030;-84
2022/09/08 12:38:34;;;;;;;4.63;3.88;;;;;;;;;;4970305;28;20042;-82
2022/09/08 12:41:12;;;;;;;7.60;4.30;;;;;;;;;;4973122;28;20105;-83
2022/09/08 12:43:44;;;;;;;5.03;4.57;;;;;;;;;;4975571;28;20458;-78
2022/09/08 12:46:29;;;;;;;4.88;4.07;;;;;;;;;;4973560;28;20042;-78
2022/09/08 12:49:13;;;;;;;4.50;3.88;;;;;;;;;;4974124;28;20150;-81
2022/09/08 12:51:38;;;;;;;3.88;3.50;;;;;;;;;;4970360;28;20166;-78
2022/09/08 12:54:23;;;;;;;7.30;6.63;;;;;;;;;;4981133;28;20138;-82
2022/09/08 12:56:54;;;;;;;9.07;4.97;;;;;;;;;;4978400;28;20053;-84
2022/09/08 12:59:58;;;;;;;5.22;4.72;;;;;;;;;;4979148;28;20074;-84
2022/09/08 13:02:24;;;;;;;5.65;5.03;;;;;;;;;;4956961;28;20026;-79
2022/09/08 13:05:08;;;;;;;6.78;4.10;;;;;;;;;;4978236;28;20037;-81
2022/09/08 13:07:33;;;;;;;5.25;4.43;;;;;;;;;;4977990;28;20101;-77
2022/09/08 13:10:22;;;;;;;4.35;3.95;;;;;;;;;;5011129;28;20036;-77
2022/09/08 13:12:47;;;;;;;4.55;3.65;;;;;;;;;;5038632;28;20048;-80
2022/09/08 13:15:23;;;;;;;4.47;4.07;;;;;;;;;;5039962;28;20032;-79
2022/09/08 13:17:49;;;;;;;8.00;4.15;;;;;;;;;;5060128;28;20035;-77
2022/09/08 13:20:21;;;;;;;4.68;3.95;;;;;;;;;;5061838;28;20017;-79
2022/09/08 13:22:49;;;;;;;5.97;4.95;;;;;;;;;;5058985;28;20443;-77
2022/09/08 13:25:17;;;;;;;9.57;5.28;;;;;;;;;;5051921;28;20120;-76
2022/09/08 13:27:44;;;;;;;4.65;4.07;;;;;;;;;;5046595;28;20119;-77
2022/09/08 13:30:12;;;;;;;8.30;5.10;;;;;;;;;;5043636;28;20430;-80
2022/09/08 13:32:41;;;;;;;5.68;4.80;;;;;;;;;;5041561;28;20032;-82
2022/09/08 13:35:09;;;;;;;5.43;4.07;;;;;;;;;;5041045;28;20040;-79
2022/09/08 13:37:34;;;;;;;;;;;;;;;;;;5042800;28;20436;-76
2022/09/08 13:40:09;;;;;;;7.97;5.10;;;;;;;;;;5041604;28;19966;-81
2022/09/08 13:42:46;;;;;;;6.38;4.90;;;;;;;;;;5040457;28;20144;-80
2022/09/08 13:45:11;;;;;;;8.32;4.30;;;;;;;;;;5039796;28;20036;-77
2022/09/08 13:47:55;;;;;;;8.65;4.50;;;;;;;;;;5042768;28;21078;-81
2022/09/08 13:50:30;;;;;;;4.90;4.40;;;;;;;;;;5041496;28;20610;-82
2022/09/08 13:53:06;;;;;;;6.25;5.63;;;;;;;;;;5043137;28;20033;-75
2022/09/08 13:55:42;;;;;;;6.43;4.40;;;;;;;;;;5041870;28;20422;-79
2022/09/08 13:58:26;;;;;;;6.88;4.22;;;;;;;;;;5037194;28;20036;-76
2022/09/08 14:01:10;;;;;;;5.78;3.97;;;;;;;;;;5049463;28;20120;-77
2022/09/08 14:03:57;;;;;;;6.50;4.90;;;;;;;;;;5059768;28;20018;-76
2022/09/08 14:06:23;;;;;;;6.60;5.88;;;;;;;;;;5059615;28;20417;-77
2022/09/08 14:08:54;;;;;;;12.05;5.28;;;;;;;;;;5060622;28;20498;-75
2022/09/08 14:11:26;;;;;;;7.10;4.38;;;;;;;;;;5059403;28;20442;-76
2022/09/08 14:14:09;;;;;;;5.93;5.32;;;;;;;;;;5061740;28;20029;-77
2022/09/08 14:16:34;;;;;;;6.07;3.67;;;;;;;;;;5061195;28;20325;-75
2022/09/08 14:19:06;;;;;;;7.25;3.47;;;;;;;;;;5059699;28;20043;-75
2022/09/08 14:21:31;;;;;;;10.07;4.03;;;;;;;;;;5049644;28;20167;-77
2022/09/08 14:24:15;;;;;;;12.15;3.80;;;;;;;;;;5046412;28;20487;-77
2022/09/08 14:26:46;;;;;;;7.25;4.07;;;;;;;;;;5061364;28;20017;-76
2022/09/08 14:29:18;;;;;;;5.07;4.03;;;;;;;;;;5060487;28;20024;-77
2022/09/08 14:31:53;;;;;;;6.25;3.72;;;;;;;;;;5060049;28;20032;-76
2022/09/08 14:34:26;;;;;;;7.82;7.03;;;;;;;;;;5058410;28;20030;-77
2022/09/08 14:37:01;;;;;;;6.07;4.30;;;;;;;;;;5055122;28;20052;-75
2022/09/08 14:39:46;;;;;;;7.13;4.75;;;;;;;;;;5045531;28;20031;-77
2022/09/08 14:42:22;;;;;;;12.23;5.03;;;;;;;;;;5050244;28;20115;-77
2022/09/08 14:45:06;;;;;;;9.98;5.30;;;;;;;;;;5046344;28;20078;-78
2022/09/08 14:47:55;;;;;;;10.43;7.30;;;;;;;;;;5043435;28;20032;-77
2022/09/08 14:50:26;;;;;;;10.38;6.30;;;;;;;;;;4999423;28;20044;-77
2022/09/08 14:52:55;;;;;;;8.52;4.40;;;;;;;;;;5037822;28;20021;-77
2022/09/08 14:55:30;;;;;;;6.00;4.55;;;;;;;;;;5040505;28;20021;-74
2022/09/08 14:58:34;;;;;;;6.32;4.90;;;;;;;;;;5043073;28;20032;-79
2022/09/08 15:01:02;;;;;;;6.93;4.32;;;;;;;;;;5013643;28;20085;-78
2022/09/08 15:03:36;;;;;;;6.00;4.45;;;;;;;;;;5039190;28;20417;-76
2022/09/08 15:06:02;;;;;;;7.07;4.50;;;;;;;;;;5042093;28;20043;-75
2022/09/08 15:08:31;;;;;;;5.53;4.10;;;;;;;;;;5038526;28;20029;-77